Aviation Digital Data Service (ADDS)

Output produced by METARs form (0824 UTC 18 February 2019)
found at http://www.aviationweather.gov/metar/data/
 
Forecast for: VOHY (HYDERABAD (CIV/M, IN)
Text: TAF VOHY 180800Z 1809/1818 05008KT 6000 SCT020 SCT025
Forecast period: 0900 to 1800 UTC 18 February 2019
Forecast type: FROM: standard forecast or significant change
Winds: from the NE (50 degrees) at 9 MPH (8 knots; 4.1 m/s)
Visibility: 4 miles (6 km)
Ceiling: at least 12,000 feet AGL
Clouds: scattered clouds at 2000 feet AGL
scattered clouds at 2500 feet AGL
Weather: no significant weather forecast for this period